sensor_id;sensor_type;location;lat;lon;timestamp;pressure;altitude;pressure_sealevel;temperature;humidity
1077;BME280;64114;48.726;9.370;2023-01-28T00:02:03;99346.09;;;2.36;86.17
1077;BME280;64114;48.726;9.370;2023-01-28T00:04:30;99294.66;;;2.01;85.32
1077;BME280;64114;48.726;9.370;2023-01-28T00:06:59;99344.25;;;2.15;87.02
1077;BME280;64114;48.726;9.370;2023-01-28T00:09:27;99340.44;;;2.23;87.40
1077;BME280;64114;48.726;9.370;2023-01-28T00:11:55;99340.66;;;2.28;86.66
1077;BME280;64114;48.726;9.370;2023-01-28T00:14:24;99328.28;;;2.16;86.92
1077;BME280;64114;48.726;9.370;2023-01-28T00:16:52;99280.41;;;1.84;85.65
1077;BME280;64114;48.726;9.370;2023-01-28T00:19:39;99329.19;;;2.35;85.41
1077;BME280;64114;48.726;9.370;2023-01-28T00:22:07;99326.72;;;2.36;85.72
1077;BME280;64114;48.726;9.370;2023-01-28T00:24:35;99294.81;;;2.04;85.66
1077;BME280;64114;48.726;9.370;2023-01-28T00:27:03;99328.28;;;2.34;85.75
1077;BME280;64114;48.726;9.370;2023-01-28T00:29:31;99325.66;;;2.14;86.37
1077;BME280;64114;48.726;9.370;2023-01-28T00:31:59;99325.59;;;1.78;87.77
1077;BME280;64114;48.726;9.370;2023-01-28T00:34:28;99325.16;;;1.69;88.49
1077;BME280;64114;48.726;9.370;2023-01-28T00:36:57;99284.16;;;1.25;89.63
1077;BME280;64114;48.726;9.370;2023-01-28T00:39:26;99230.25;;;0.91;90.14
1077;BME280;64114;48.726;9.370;2023-01-28T00:41:54;99210.59;;;1.02;89.64
1077;BME280;64114;48.726;9.370;2023-01-28T00:44:23;99292.91;;;1.81;88.51
1077;BME280;64114;48.726;9.370;2023-01-28T00:46:51;99346.63;;;1.77;89.07
1077;BME280;64114;48.726;9.370;2023-01-28T00:49:21;99291.72;;;1.58;89.37
1077;BME280;64114;48.726;9.370;2023-01-28T00:51:49;99312.63;;;1.89;89.01
1077;BME280;64114;48.726;9.370;2023-01-28T00:54:18;99319.84;;;1.64;88.93
1077;BME280;64114;48.726;9.370;2023-01-28T00:56:46;99319.59;;;1.76;89.57
1077;BME280;64114;48.726;9.370;2023-01-28T00:59:14;99298.34;;;1.73;88.84
1077;BME280;64114;48.726;9.370;2023-01-28T01:01:42;99271.91;;;1.66;87.77
1077;BME280;64114;48.726;9.370;2023-01-28T01:04:10;99313.44;;;1.88;88.07
1077;BME280;64114;48.726;9.370;2023-01-28T01:06:39;99332.53;;;1.99;87.96
1077;BME280;64114;48.726;9.370;2023-01-28T01:09:09;99219.56;;;1.47;87.70
1077;BME280;64114;48.726;9.370;2023-01-28T01:11:40;99333.00;;;2.26;87.42
1077;BME280;64114;48.726;9.370;2023-01-28T01:14:09;99299.09;;;1.88;87.19
1077;BME280;64114;48.726;9.370;2023-01-28T01:16:38;99187.81;;;1.17;86.81
1077;BME280;64114;48.726;9.370;2023-01-28T01:19:07;99336.31;;;2.25;86.93
1077;BME280;64114;48.726;9.370;2023-01-28T01:21:35;99326.88;;;2.05;87.20
1077;BME280;64114;48.726;9.370;2023-01-28T01:24:03;99322.34;;;2.16;87.67
1077;BME280;64114;48.726;9.370;2023-01-28T01:26:32;99325.16;;;2.22;87.46
1077;BME280;64114;48.726;9.370;2023-01-28T01:29:02;99326.38;;;1.94;86.97
1077;BME280;64114;48.726;9.370;2023-01-28T01:31:29;99326.72;;;1.83;88.45
1077;BME280;64114;48.726;9.370;2023-01-28T01:33:59;99331.28;;;1.91;88.65
1077;BME280;64114;48.726;9.370;2023-01-28T01:36:26;99328.53;;;1.69;89.01
1077;BME280;64114;48.726;9.370;2023-01-28T01:38:55;99271.63;;;1.27;89.79
1077;BME280;64114;48.726;9.370;2023-01-28T01:41:27;99338.63;;;1.69;89.61
1077;BME280;64114;48.726;9.370;2023-01-28T01:43:57;99261.44;;;1.25;90.49
1077;BME280;64114;48.726;9.370;2023-01-28T01:46:33;99296.00;;;1.43;89.51
1077;BME280;64114;48.726;9.370;2023-01-28T01:49:08;99285.84;;;1.41;90.44
1077;BME280;64114;48.726;9.370;2023-01-28T01:51:41;99282.66;;;1.45;89.81
1077;BME280;64114;48.726;9.370;2023-01-28T01:54:10;99292.50;;;1.57;89.01
1077;BME280;64114;48.726;9.370;2023-01-28T01:56:42;99343.00;;;1.72;90.36
1077;BME280;64114;48.726;9.370;2023-01-28T01:59:14;99340.66;;;1.93;89.93
1077;BME280;64114;48.726;9.370;2023-01-28T02:01:45;99328.81;;;1.92;89.01
1077;BME280;64114;48.726;9.370;2023-01-28T02:04:18;99317.28;;;1.81;89.02
1077;BME280;64114;48.726;9.370;2023-01-28T02:06:49;99344.50;;;2.03;89.00
1077;BME280;64114;48.726;9.370;2023-01-28T02:09:22;99350.06;;;1.96;88.93
1077;BME280;64114;48.726;9.370;2023-01-28T02:11:51;99316.50;;;1.82;89.16
1077;BME280;64114;48.726;9.370;2023-01-28T02:14:20;99297.22;;;1.84;89.01
1077;BME280;64114;48.726;9.370;2023-01-28T02:16:58;99349.47;;;2.18;88.22
1077;BME280;64114;48.726;9.370;2023-01-28T02:19:31;99353.97;;;2.07;89.00
1077;BME280;64114;48.726;9.370;2023-01-28T02:22:20;99349.78;;;2.24;88.28
1077;BME280;64114;48.726;9.370;2023-01-28T02:25:11;99353.69;;;2.36;87.63
1077;BME280;64114;48.726;9.370;2023-01-28T02:27:57;99355.03;;;1.94;88.15
1077;BME280;64114;48.726;9.370;2023-01-28T02:30:34;99267.91;;;1.36;89.35
1077;BME280;64114;48.726;9.370;2023-01-28T02:33:07;99360.63;;;2.05;89.58
1077;BME280;64114;48.726;9.370;2023-01-28T02:35:40;99355.19;;;1.97;89.99
1077;BME280;64114;48.726;9.370;2023-01-28T02:38:12;99225.28;;;1.26;89.66
1077;BME280;64114;48.726;9.370;2023-01-28T02:40:46;99349.16;;;2.12;89.16
1077;BME280;64114;48.726;9.370;2023-01-28T02:43:34;99300.88;;;1.73;89.30
1077;BME280;64114;48.726;9.370;2023-01-28T02:46:11;99318.84;;;1.95;88.58
1077;BME280;64114;48.726;9.370;2023-01-28T02:49:01;99350.09;;;2.14;89.01
1077;BME280;64114;48.726;9.370;2023-01-28T02:51:44;99298.75;;;1.64;89.58
1077;BME280;64114;48.726;9.370;2023-01-28T02:54:21;99312.25;;;1.64;90.69
1077;BME280;64114;48.726;9.370;2023-01-28T02:56:59;99354.72;;;1.88;90.68
1077;BME280;64114;48.726;9.370;2023-01-28T02:59:39;99334.28;;;1.83;90.09
1077;BME280;64114;48.726;9.370;2023-01-28T03:02:14;99260.91;;;1.65;88.38
1077;BME280;64114;48.726;9.370;2023-01-28T03:04:49;99315.72;;;1.83;89.00
1077;BME280;64114;48.726;9.370;2023-01-28T03:07:22;99327.91;;;2.08;88.62
1077;BME280;64114;48.726;9.370;2023-01-28T03:09:53;99348.19;;;2.26;87.85
1077;BME280;64114;48.726;9.370;2023-01-28T03:12:26;99331.44;;;1.94;88.66
1077;BME280;64114;48.726;9.370;2023-01-28T03:15:16;99285.97;;;1.61;89.58
1077;BME280;64114;48.726;9.370;2023-01-28T03:18:04;99360.34;;;1.99;90.06
1077;BME280;64114;48.726;9.370;2023-01-28T03:20:56;99369.88;;;2.05;90.45
1077;BME280;64114;48.726;9.370;2023-01-28T03:23:53;99289.72;;;1.86;88.91
1077;BME280;64114;48.726;9.370;2023-01-28T03:26:43;99203.16;;;1.22;89.02
1077;BME280;64114;48.726;9.370;2023-01-28T03:29:32;99358.00;;;1.86;91.79
1077;BME280;64114;48.726;9.370;2023-01-28T03:32:21;99359.28;;;2.12;91.09
1077;BME280;64114;48.726;9.370;2023-01-28T03:35:08;99363.09;;;2.04;91.88
1077;BME280;64114;48.726;9.370;2023-01-28T03:37:54;99360.34;;;1.99;92.46
1077;BME280;64114;48.726;9.370;2023-01-28T03:40:27;99359.09;;;1.91;93.31
1077;BME280;64114;48.726;9.370;2023-01-28T03:42:55;99364.22;;;1.92;93.39
1077;BME280;64114;48.726;9.370;2023-01-28T03:45:32;99338.44;;;1.99;92.92
1077;BME280;64114;48.726;9.370;2023-01-28T03:48:04;99376.19;;;2.13;92.24
1077;BME280;64114;48.726;9.370;2023-01-28T03:50:32;99358.97;;;2.06;93.15
1077;BME280;64114;48.726;9.370;2023-01-28T03:53:01;99380.59;;;1.99;93.41
1077;BME280;64114;48.726;9.370;2023-01-28T03:55:48;99379.22;;;1.89;94.30
1077;BME280;64114;48.726;9.370;2023-01-28T03:58:17;99377.38;;;2.03;93.93
1077;BME280;64114;48.726;9.370;2023-01-28T04:00:45;99372.72;;;2.11;93.22
1077;BME280;64114;48.726;9.370;2023-01-28T04:03:17;99296.53;;;1.70;93.34
1077;BME280;64114;48.726;9.370;2023-01-28T04:06:00;99357.28;;;1.72;94.38
1077;BME280;64114;48.726;9.370;2023-01-28T04:08:45;99373.22;;;1.87;95.02
1077;BME280;64114;48.726;9.370;2023-01-28T04:11:41;99369.53;;;1.97;95.33
1077;BME280;64114;48.726;9.370;2023-01-28T04:14:13;99341.19;;;2.04;95.40
1077;BME280;64114;48.726;9.370;2023-01-28T04:16:48;99328.72;;;2.25;94.07
1077;BME280;64114;48.726;9.370;2023-01-28T04:19:17;99383.75;;;2.48;92.60
1077;BME280;64114;48.726;9.370;2023-01-28T04:21:46;99382.97;;;2.49;91.79
1077;BME280;64114;48.726;9.370;2023-01-28T04:24:15;99360.50;;;2.37;91.15
1077;BME280;64114;48.726;9.370;2023-01-28T04:26:43;99345.22;;;2.01;92.56
1077;BME280;64114;48.726;9.370;2023-01-28T04:29:12;99396.13;;;2.07;93.16
1077;BME280;64114;48.726;9.370;2023-01-28T04:31:40;99266.09;;;1.34;93.49
1077;BME280;64114;48.726;9.370;2023-01-28T04:34:38;99387.75;;;1.91;94.63
1077;BME280;64114;48.726;9.370;2023-01-28T04:37:33;99379.66;;;1.80;94.72
1077;BME280;64114;48.726;9.370;2023-01-28T04:40:11;99392.88;;;2.09;93.94
1077;BME280;64114;48.726;9.370;2023-01-28T04:42:41;99405.63;;;1.94;92.54
1077;BME280;64114;48.726;9.370;2023-01-28T04:45:20;99362.88;;;1.99;93.28
1077;BME280;64114;48.726;9.370;2023-01-28T04:47:57;99353.78;;;2.03;92.85
1077;BME280;64114;48.726;9.370;2023-01-28T04:50:44;99365.25;;;1.96;92.91
1077;BME280;64114;48.726;9.370;2023-01-28T04:53:17;99415.31;;;2.20;92.89
1077;BME280;64114;48.726;9.370;2023-01-28T04:55:56;99398.22;;;2.16;93.61
1077;BME280;64114;48.726;9.370;2023-01-28T04:58:28;99377.97;;;1.97;93.39
1077;BME280;64114;48.726;9.370;2023-01-28T05:01:01;99405.25;;;2.38;93.09
1077;BME280;64114;48.726;9.370;2023-01-28T05:03:30;99372.84;;;2.31;92.38
1077;BME280;64114;48.726;9.370;2023-01-28T05:06:03;99406.78;;;2.52;91.93
1077;BME280;64114;48.726;9.370;2023-01-28T05:08:38;99403.19;;;2.31;92.84
1077;BME280;64114;48.726;9.370;2023-01-28T05:11:07;99372.53;;;2.24;93.01
1077;BME280;64114;48.726;9.370;2023-01-28T05:13:35;99441.53;;;2.38;92.64
1077;BME280;64114;48.726;9.370;2023-01-28T05:16:06;99407.38;;;2.30;93.57
1077;BME280;64114;48.726;9.370;2023-01-28T05:18:34;99366.94;;;2.13;93.13
1077;BME280;64114;48.726;9.370;2023-01-28T05:21:14;99411.56;;;2.64;92.22
1077;BME280;64114;48.726;9.370;2023-01-28T05:23:42;99413.59;;;2.53;91.88
1077;BME280;64114;48.726;9.370;2023-01-28T05:26:11;99416.13;;;2.53;91.95
1077;BME280;64114;48.726;9.370;2023-01-28T05:28:39;99379.19;;;2.22;92.53
1077;BME280;64114;48.726;9.370;2023-01-28T05:31:08;99415.09;;;2.50;92.09
1077;BME280;64114;48.726;9.370;2023-01-28T05:33:37;99353.72;;;2.19;92.44
1077;BME280;64114;48.726;9.370;2023-01-28T05:36:08;99174.31;;;0.84;92.52
1077;BME280;64114;48.726;9.370;2023-01-28T05:38:39;99402.97;;;2.26;92.26
1077;BME280;64114;48.726;9.370;2023-01-28T05:41:07;99397.41;;;2.33;92.07
1077;BME280;64114;48.726;9.370;2023-01-28T05:43:38;99316.97;;;1.91;91.70
1077;BME280;64114;48.726;9.370;2023-01-28T05:46:25;99419.31;;;2.33;92.78
1077;BME280;64114;48.726;9.370;2023-01-28T05:49:03;99396.75;;;2.03;94.09
1077;BME280;64114;48.726;9.370;2023-01-28T05:51:51;99286.69;;;1.42;94.27
1077;BME280;64114;48.726;9.370;2023-01-28T05:54:22;99417.22;;;2.07;95.37
1077;BME280;64114;48.726;9.370;2023-01-28T05:56:50;99419.44;;;2.01;95.96
1077;BME280;64114;48.726;9.370;2023-01-28T05:59:18;99347.75;;;1.66;95.82
1077;BME280;64114;48.726;9.370;2023-01-28T06:01:49;99421.25;;;2.20;95.37
1077;BME280;64114;48.726;9.370;2023-01-28T06:04:20;99434.56;;;2.34;94.06
1077;BME280;64114;48.726;9.370;2023-01-28T06:06:48;99425.81;;;2.27;94.59
1077;BME280;64114;48.726;9.370;2023-01-28T06:09:16;99424.63;;;2.21;93.85
1077;BME280;64114;48.726;9.370;2023-01-28T06:11:45;99428.75;;;2.19;94.75
1077;BME280;64114;48.726;9.370;2023-01-28T06:14:22;99438.03;;;2.36;94.72
1077;BME280;64114;48.726;9.370;2023-01-28T06:17:04;99428.59;;;2.16;94.63
1077;BME280;64114;48.726;9.370;2023-01-28T06:19:51;99446.06;;;2.27;94.20
1077;BME280;64114;48.726;9.370;2023-01-28T06:22:19;99431.28;;;2.02;94.46
1077;BME280;64114;48.726;9.370;2023-01-28T06:24:46;99414.88;;;1.94;95.15
1077;BME280;64114;48.726;9.370;2023-01-28T06:27:16;99453.72;;;2.12;95.55
1077;BME280;64114;48.726;9.370;2023-01-28T06:29:44;99401.13;;;1.89;94.51
1077;BME280;64114;48.726;9.370;2023-01-28T06:32:13;99357.75;;;1.81;93.93
1077;BME280;64114;48.726;9.370;2023-01-28T06:34:41;99467.56;;;2.70;91.18
1077;BME280;64114;48.726;9.370;2023-01-28T06:37:11;99420.16;;;2.15;92.27
1077;BME280;64114;48.726;9.370;2023-01-28T06:39:40;99413.88;;;2.25;90.96
1077;BME280;64114;48.726;9.370;2023-01-28T06:42:08;99409.03;;;1.95;92.13
1077;BME280;64114;48.726;9.370;2023-01-28T06:44:38;99437.28;;;2.21;92.55
1077;BME280;64114;48.726;9.370;2023-01-28T06:47:05;99439.81;;;2.04;92.57
1077;BME280;64114;48.726;9.370;2023-01-28T06:49:35;99450.19;;;2.09;92.78
1077;BME280;64114;48.726;9.370;2023-01-28T06:52:03;99475.78;;;2.32;93.57
1077;BME280;64114;48.726;9.370;2023-01-28T06:54:31;99428.44;;;2.12;92.08
1077;BME280;64114;48.726;9.370;2023-01-28T06:56:59;99405.97;;;2.19;90.69
1077;BME280;64114;48.726;9.370;2023-01-28T06:59:27;99451.16;;;2.46;90.74
1077;BME280;64114;48.726;9.370;2023-01-28T07:01:56;99454.38;;;2.60;90.08
1077;BME280;64114;48.726;9.370;2023-01-28T07:04:24;99420.16;;;2.15;90.35
1077;BME280;64114;48.726;9.370;2023-01-28T07:06:52;99453.88;;;2.32;90.42
1077;BME280;64114;48.726;9.370;2023-01-28T07:09:20;99503.00;;;2.36;92.68
1077;BME280;64114;48.726;9.370;2023-01-28T07:11:47;99513.66;;;2.30;93.31
1077;BME280;64114;48.726;9.370;2023-01-28T07:14:15;99254.81;;;0.62;94.02
1077;BME280;64114;48.726;9.370;2023-01-28T07:16:43;99467.50;;;1.84;94.12
1077;BME280;64114;48.726;9.370;2023-01-28T07:19:13;99502.34;;;2.23;94.53
1077;BME280;64114;48.726;9.370;2023-01-28T07:21:41;99439.22;;;1.75;96.04
1077;BME280;64114;48.726;9.370;2023-01-28T07:24:09;99511.06;;;2.12;96.25
1077;BME280;64114;48.726;9.370;2023-01-28T07:26:37;99481.72;;;1.82;98.04
1077;BME280;64114;48.726;9.370;2023-01-28T07:29:05;99522.25;;;1.84;98.99
1077;BME280;64114;48.726;9.370;2023-01-28T07:31:32;99518.31;;;2.06;97.72
1077;BME280;64114;48.726;9.370;2023-01-28T07:34:00;99533.19;;;1.99;100.00
1077;BME280;64114;48.726;9.370;2023-01-28T07:36:29;99522.34;;;2.02;100.00
1077;BME280;64114;48.726;9.370;2023-01-28T07:38:57;99425.69;;;1.58;98.87
1077;BME280;64114;48.726;9.370;2023-01-28T07:41:25;99528.94;;;2.32;97.73
1077;BME280;64114;48.726;9.370;2023-01-28T07:43:56;99396.38;;;1.45;97.09
1077;BME280;64114;48.726;9.370;2023-01-28T07:46:24;99428.09;;;1.40;98.30
1077;BME280;64114;48.726;9.370;2023-01-28T07:48:52;99494.44;;;2.01;98.33
1077;BME280;64114;48.726;9.370;2023-01-28T07:51:19;99524.03;;;2.18;97.94
1077;BME280;64114;48.726;9.370;2023-01-28T07:53:48;99466.47;;;2.14;96.27
1077;BME280;64114;48.726;9.370;2023-01-28T07:56:17;99533.56;;;2.57;95.68
1077;BME280;64114;48.726;9.370;2023-01-28T07:58:48;99431.31;;;1.86;94.75
1077;BME280;64114;48.726;9.370;2023-01-28T08:01:16;99397.25;;;1.79;94.89
1077;BME280;64114;48.726;9.370;2023-01-28T08:03:45;99530.50;;;2.63;95.29
1077;BME280;64114;48.726;9.370;2023-01-28T08:06:15;99518.53;;;2.60;94.59
1077;BME280;64114;48.726;9.370;2023-01-28T08:08:43;99414.94;;;1.95;93.65
1077;BME280;64114;48.726;9.370;2023-01-28T08:11:12;99536.53;;;2.83;93.43
1077;BME280;64114;48.726;9.370;2023-01-28T08:13:40;99543.72;;;2.92;93.96
1077;BME280;64114;48.726;9.370;2023-01-28T08:16:08;99465.63;;;2.65;91.93
1077;BME280;64114;48.726;9.370;2023-01-28T08:18:36;99547.16;;;3.10;91.63
1077;BME280;64114;48.726;9.370;2023-01-28T08:21:04;99533.41;;;3.05;91.31
1077;BME280;64114;48.726;9.370;2023-01-28T08:23:32;99554.53;;;3.06;91.58
1077;BME280;64114;48.726;9.370;2023-01-28T08:26:01;99542.69;;;3.23;91.37
1077;BME280;64114;48.726;9.370;2023-01-28T08:28:30;99542.03;;;3.27;90.01
1077;BME280;64114;48.726;9.370;2023-01-28T08:30:59;99545.28;;;3.24;89.88
1077;BME280;64114;48.726;9.370;2023-01-28T08:33:28;99547.63;;;3.38;89.42
1077;BME280;64114;48.726;9.370;2023-01-28T08:35:56;99530.38;;;3.12;89.15
1077;BME280;64114;48.726;9.370;2023-01-28T08:38:23;99547.97;;;3.27;89.28
1077;BME280;64114;48.726;9.370;2023-01-28T08:40:51;99417.81;;;2.36;90.03
1077;BME280;64114;48.726;9.370;2023-01-28T08:43:21;99535.25;;;3.26;88.31
1077;BME280;64114;48.726;9.370;2023-01-28T08:45:50;99376.63;;;2.57;87.05
1077;BME280;64114;48.726;9.370;2023-01-28T08:48:18;99467.50;;;2.87;88.05
1077;BME280;64114;48.726;9.370;2023-01-28T08:50:46;99548.09;;;3.49;87.68
1077;BME280;64114;48.726;9.370;2023-01-28T08:53:16;99563.03;;;3.42;88.96
1077;BME280;64114;48.726;9.370;2023-01-28T08:55:45;99555.56;;;3.45;88.57
1077;BME280;64114;48.726;9.370;2023-01-28T08:58:15;99509.59;;;3.20;87.78
1077;BME280;64114;48.726;9.370;2023-01-28T09:00:44;99561.22;;;3.58;87.92
1077;BME280;64114;48.726;9.370;2023-01-28T09:03:15;99558.53;;;3.73;87.35
1077;BME280;64114;48.726;9.370;2023-01-28T09:05:43;99558.50;;;3.91;85.89
1077;BME280;64114;48.726;9.370;2023-01-28T09:08:13;99554.78;;;4.02;84.84
1077;BME280;64114;48.726;9.370;2023-01-28T09:10:42;99452.59;;;3.29;85.30
1077;BME280;64114;48.726;9.370;2023-01-28T09:13:12;99539.28;;;3.96;85.60
1077;BME280;64114;48.726;9.370;2023-01-28T09:15:41;99531.34;;;3.88;84.23
1077;BME280;64114;48.726;9.370;2023-01-28T09:18:09;99520.94;;;4.02;84.14
1077;BME280;64114;48.726;9.370;2023-01-28T09:20:41;99543.72;;;4.20;82.75
1077;BME280;64114;48.726;9.370;2023-01-28T09:23:10;99561.19;;;4.32;83.14
1077;BME280;64114;48.726;9.370;2023-01-28T09:25:37;99574.94;;;4.37;82.66
1077;BME280;64114;48.726;9.370;2023-01-28T09:28:05;99425.56;;;3.48;83.40
1077;BME280;64114;48.726;9.370;2023-01-28T09:30:33;99575.13;;;4.42;82.89
1077;BME280;64114;48.726;9.370;2023-01-28T09:33:03;99581.34;;;4.68;81.15
1077;BME280;64114;48.726;9.370;2023-01-28T09:35:32;99582.84;;;4.63;80.52
1077;BME280;64114;48.726;9.370;2023-01-28T09:38:02;99548.94;;;4.43;80.51
1077;BME280;64114;48.726;9.370;2023-01-28T09:40:34;99596.78;;;4.53;82.00
1077;BME280;64114;48.726;9.370;2023-01-28T09:43:24;99582.69;;;4.60;81.87
1077;BME280;64114;48.726;9.370;2023-01-28T09:46:01;99541.69;;;4.50;79.99
1077;BME280;64114;48.726;9.370;2023-01-28T09:48:32;99571.81;;;4.84;79.94
1077;BME280;64114;48.726;9.370;2023-01-28T09:51:07;99567.66;;;4.64;80.20
1077;BME280;64114;48.726;9.370;2023-01-28T09:53:42;99594.91;;;4.69;80.04
1077;BME280;64114;48.726;9.370;2023-01-28T09:56:24;99604.56;;;4.97;78.61
1077;BME280;64114;48.726;9.370;2023-01-28T09:58:53;99596.09;;;4.97;78.43
1077;BME280;64114;48.726;9.370;2023-01-28T10:01:34;99579.13;;;4.96;78.50
1077;BME280;64114;48.726;9.370;2023-01-28T10:04:15;99604.38;;;5.12;77.27
1077;BME280;64114;48.726;9.370;2023-01-28T10:06:55;99603.34;;;5.08;77.72
1077;BME280;64114;48.726;9.370;2023-01-28T10:09:36;99531.25;;;4.44;78.25
1077;BME280;64114;48.726;9.370;2023-01-28T10:12:19;99603.75;;;4.77;79.06
1077;BME280;64114;48.726;9.370;2023-01-28T10:15:03;99561.38;;;4.56;79.17
1077;BME280;64114;48.726;9.370;2023-01-28T10:17:40;99595.84;;;4.71;79.18
1077;BME280;64114;48.726;9.370;2023-01-28T10:20:18;99585.69;;;4.51;79.77
1077;BME280;64114;48.726;9.370;2023-01-28T10:22:52;99598.13;;;4.45;80.72
1077;BME280;64114;48.726;9.370;2023-01-28T10:25:27;99597.53;;;4.31;80.94
1077;BME280;64114;48.726;9.370;2023-01-28T10:27:57;99576.72;;;4.20;80.83
1077;BME280;64114;48.726;9.370;2023-01-28T10:30:30;99589.66;;;4.06;83.31
1077;BME280;64114;48.726;9.370;2023-01-28T10:33:02;99526.03;;;4.02;81.75
1077;BME280;64114;48.726;9.370;2023-01-28T10:35:35;99581.09;;;4.42;81.38
1077;BME280;64114;48.726;9.370;2023-01-28T10:38:06;99580.41;;;4.27;81.69
1077;BME280;64114;48.726;9.370;2023-01-28T10:40:36;99582.53;;;4.17;82.74
1077;BME280;64114;48.726;9.370;2023-01-28T10:43:04;99581.03;;;4.60;81.05
1077;BME280;64114;48.726;9.370;2023-01-28T10:45:36;99531.56;;;4.13;80.77
1077;BME280;64114;48.726;9.370;2023-01-28T10:48:10;99576.03;;;4.42;81.78
1077;BME280;64114;48.726;9.370;2023-01-28T10:50:49;99575.50;;;4.49;80.93
1077;BME280;64114;48.726;9.370;2023-01-28T10:53:18;99571.13;;;4.67;80.36
1077;BME280;64114;48.726;9.370;2023-01-28T10:55:51;99560.72;;;4.82;78.44
1077;BME280;64114;48.726;9.370;2023-01-28T10:58:24;99566.56;;;4.79;79.46
1077;BME280;64114;48.726;9.370;2023-01-28T11:00:56;99577.16;;;4.90;79.57
1077;BME280;64114;48.726;9.370;2023-01-28T11:03:24;99585.41;;;4.84;78.52
1077;BME280;64114;48.726;9.370;2023-01-28T11:05:54;99581.41;;;4.70;79.16
1077;BME280;64114;48.726;9.370;2023-01-28T11:08:25;99548.94;;;4.23;80.64
1077;BME280;64114;48.726;9.370;2023-01-28T11:10:57;99581.81;;;4.40;80.55
1077;BME280;64114;48.726;9.370;2023-01-28T11:13:27;99580.22;;;4.61;80.05
1077;BME280;64114;48.726;9.370;2023-01-28T11:15:59;99519.41;;;4.25;78.91
1077;BME280;64114;48.726;9.370;2023-01-28T11:18:30;99548.94;;;4.43;79.03
1077;BME280;64114;48.726;9.370;2023-01-28T11:21:00;99533.59;;;4.40;79.15
1077;BME280;64114;48.726;9.370;2023-01-28T11:23:31;99566.72;;;4.43;79.55
1077;BME280;64114;48.726;9.370;2023-01-28T11:26:04;99584.38;;;4.59;79.83
1077;BME280;64114;48.726;9.370;2023-01-28T11:28:34;99584.50;;;4.43;81.29
1077;BME280;64114;48.726;9.370;2023-01-28T11:31:02;99575.88;;;4.59;80.91
1077;BME280;64114;48.726;9.370;2023-01-28T11:33:34;99470.00;;;3.97;80.25
1077;BME280;64114;48.726;9.370;2023-01-28T11:36:06;99553.03;;;4.59;78.77
1077;BME280;64114;48.726;9.370;2023-01-28T11:38:35;99554.16;;;4.26;79.61
1077;BME280;64114;48.726;9.370;2023-01-28T11:41:04;99584.75;;;4.69;80.43
1077;BME280;64114;48.726;9.370;2023-01-28T11:43:32;99587.53;;;4.54;81.06
1077;BME280;64114;48.726;9.370;2023-01-28T11:46:11;99538.06;;;4.45;80.23
1077;BME280;64114;48.726;9.370;2023-01-28T11:48:51;99584.22;;;4.76;80.14
1077;BME280;64114;48.726;9.370;2023-01-28T11:51:29;99586.59;;;4.92;78.17
1077;BME280;64114;48.726;9.370;2023-01-28T11:54:09;99585.53;;;4.87;78.97
1077;BME280;64114;48.726;9.370;2023-01-28T11:56:55;99565.66;;;4.57;79.54
1077;BME280;64114;48.726;9.370;2023-01-28T11:59:50;99535.81;;;4.32;79.57
1077;BME280;64114;48.726;9.370;2023-01-28T12:02:41;99543.16;;;4.45;79.68
1077;BME280;64114;48.726;9.370;2023-01-28T12:05:20;99565.66;;;4.57;79.79
1077;BME280;64114;48.726;9.370;2023-01-28T12:07:55;99521.09;;;4.44;78.85
1077;BME280;64114;48.726;9.370;2023-01-28T12:10:36;99568.22;;;4.78;79.49
1077;BME280;64114;48.726;9.370;2023-01-28T12:13:15;99576.09;;;4.85;79.42
1077;BME280;64114;48.726;9.370;2023-01-28T12:16:01;99521.56;;;4.16;80.55
1077;BME280;64114;48.726;9.370;2023-01-28T12:18:44;99578.88;;;4.70;80.93
1077;BME280;64114;48.726;9.370;2023-01-28T12:21:25;99538.75;;;4.41;79.75
1077;BME280;64114;48.726;9.370;2023-01-28T12:24:09;99572.25;;;4.73;79.93
1077;BME280;64114;48.726;9.370;2023-01-28T12:26:50;99575.91;;;4.80;79.53
1077;BME280;64114;48.726;9.370;2023-01-28T12:29:27;99552.47;;;4.66;79.14
1077;BME280;64114;48.726;9.370;2023-01-28T12:32:12;99586.72;;;4.55;80.24
1077;BME280;64114;48.726;9.370;2023-01-28T12:34:56;99550.94;;;4.50;79.68
1077;BME280;64114;48.726;9.370;2023-01-28T12:37:37;99521.56;;;4.35;79.97
1077;BME280;64114;48.726;9.370;2023-01-28T12:40:19;99591.56;;;4.70;78.96
1077;BME280;64114;48.726;9.370;2023-01-28T12:42:55;99573.22;;;4.36;79.84
1077;BME280;64114;48.726;9.370;2023-01-28T12:45:30;99542.25;;;4.25;80.90
1077;BME280;64114;48.726;9.370;2023-01-28T12:48:06;99532.72;;;4.19;81.62
1077;BME280;64114;48.726;9.370;2023-01-28T12:50:40;99580.09;;;4.58;80.98
1077;BME280;64114;48.726;9.370;2023-01-28T12:53:18;99584.50;;;4.62;80.38
1077;BME280;64114;48.726;9.370;2023-01-28T12:55:53;99563.66;;;4.50;80.36
1077;BME280;64114;48.726;9.370;2023-01-28T12:58:28;99573.09;;;4.53;80.90
1077;BME280;64114;48.726;9.370;2023-01-28T13:01:04;99570.31;;;4.28;82.14
1077;BME280;64114;48.726;9.370;2023-01-28T13:03:39;99439.03;;;3.47;81.80
1077;BME280;64114;48.726;9.370;2023-01-28T13:06:12;99484.88;;;3.89;81.87
1077;BME280;64114;48.726;9.370;2023-01-28T13:08:41;99522.16;;;4.10;81.38
1077;BME280;64114;48.726;9.370;2023-01-28T13:11:14;99576.75;;;4.40;82.28
1077;BME280;64114;48.726;9.370;2023-01-28T13:13:44;99543.25;;;4.09;82.92
1077;BME280;64114;48.726;9.370;2023-01-28T13:16:14;99577.25;;;4.13;83.94
1077;BME280;64114;48.726;9.370;2023-01-28T13:18:47;99573.22;;;4.36;82.54
1077;BME280;64114;48.726;9.370;2023-01-28T13:21:27;99574.81;;;4.34;83.63
1077;BME280;64114;48.726;9.370;2023-01-28T13:24:06;99577.00;;;4.46;84.01
1077;BME280;64114;48.726;9.370;2023-01-28T13:26:46;99574.81;;;4.34;84.80
1077;BME280;64114;48.726;9.370;2023-01-28T13:29:26;99570.69;;;4.56;85.93
1077;BME280;64114;48.726;9.370;2023-01-28T13:31:57;99571.63;;;4.58;86.94
1077;BME280;64114;48.726;9.370;2023-01-28T13:34:32;99515.53;;;4.14;86.86
1077;BME280;64114;48.726;9.370;2023-01-28T13:37:03;99561.34;;;4.76;85.62
1077;BME280;64114;48.726;9.370;2023-01-28T13:39:33;99542.38;;;4.68;82.87
1077;BME280;64114;48.726;9.370;2023-01-28T13:42:19;99542.19;;;5.04;81.81
1077;BME280;64114;48.726;9.370;2023-01-28T13:44:49;99516.94;;;5.08;80.15
1077;BME280;64114;48.726;9.370;2023-01-28T13:47:33;99559.25;;;5.72;78.53
1077;BME280;64114;48.726;9.370;2023-01-28T13:50:04;99563.63;;;5.98;77.01
1077;BME280;64114;48.726;9.370;2023-01-28T13:52:35;99568.88;;;6.03;76.74
1077;BME280;64114;48.726;9.370;2023-01-28T13:55:13;99557.25;;;5.86;76.63